createdAt,value
2022-09-15T12:00:23.465Z,19.70
2022-09-15T12:03:02.810Z,20.10
2022-09-15T12:05:37.621Z,20.30
2022-09-15T12:08:15.450Z,20.10
2022-09-15T12:10:52.285Z,19.30
2022-09-15T12:13:24.057Z,19.50
2022-09-15T12:15:53.619Z,19.50
2022-09-15T12:18:40.795Z,19.70
2022-09-15T12:21:18.639Z,19.80
2022-09-15T12:23:55.551Z,19.90
2022-09-15T12:26:28.940Z,19.90
2022-09-15T12:29:02.929Z,19.90
2022-09-15T12:31:38.117Z,19.60
2022-09-15T12:34:34.590Z,18.90
2022-09-15T12:37:12.479Z,19.40
2022-09-15T12:39:43.155Z,19.50
2022-09-15T12:42:20.415Z,19.30
2022-09-15T12:44:54.293Z,19.30
2022-09-15T12:47:34.304Z,19.30
2022-09-15T12:50:22.141Z,19.10
2022-09-15T12:52:53.537Z,19.30
2022-09-15T12:55:25.554Z,19.60
2022-09-15T12:58:00.199Z,19.50
2022-09-15T13:00:49.890Z,20.00
2022-09-15T13:03:50.903Z,19.80
2022-09-15T13:06:23.366Z,19.50
2022-09-15T13:09:16.784Z,19.80
2022-09-15T13:11:51.212Z,19.90
2022-09-15T13:14:27.860Z,19.90
2022-09-15T13:17:03.106Z,20.30
2022-09-15T13:19:41.601Z,20.10
2022-09-15T13:22:27.282Z,20.20
2022-09-15T13:25:02.537Z,20.30
2022-09-15T13:27:41.014Z,20.40
2022-09-15T13:30:31.365Z,20.00
2022-09-15T13:33:06.920Z,19.90
2022-09-15T13:35:57.763Z,19.90
2022-09-15T13:38:56.576Z,19.80
2022-09-15T13:41:46.086Z,20.00
2022-09-15T13:45:17.500Z,19.30
2022-09-15T13:48:06.557Z,19.10
2022-09-15T13:50:40.265Z,18.10
2022-09-15T13:53:27.134Z,18.20
2022-09-15T13:55:57.358Z,18.00
2022-09-15T14:01:17.262Z,18.60
2022-09-15T14:03:50.085Z,19.40
2022-09-15T14:06:22.726Z,19.70
2022-09-15T14:08:54.947Z,18.60
2022-09-15T14:11:29.468Z,18.90
2022-09-15T14:13:59.469Z,19.20
2022-09-15T14:16:35.467Z,18.70
2022-09-15T14:19:22.583Z,18.70
2022-09-15T14:21:53.767Z,19.00
2022-09-15T14:24:29.717Z,18.90
2022-09-15T14:27:08.325Z,18.90
2022-09-15T14:29:41.541Z,19.20
2022-09-15T14:32:15.647Z,19.00
2022-09-15T14:34:45.330Z,19.10
2022-09-15T14:37:22.311Z,19.40
2022-09-15T14:39:51.921Z,19.40
2022-09-15T14:42:29.615Z,19.40
2022-09-15T14:48:01.360Z,19.90
2022-09-15T14:50:33.290Z,19.50
2022-09-15T14:53:06.384Z,19.90
2022-09-15T14:55:41.117Z,19.60
2022-09-15T14:58:21.433Z,20.10
2022-09-15T15:03:35.202Z,20.00
2022-09-15T15:06:28.539Z,20.20
2022-09-15T15:09:03.809Z,19.90
2022-09-15T15:11:34.333Z,20.10
2022-09-15T15:14:06.898Z,19.90
2022-09-15T15:16:35.744Z,20.20
2022-09-15T15:19:04.419Z,19.90
2022-09-15T15:21:39.218Z,19.20
2022-09-15T15:24:20.052Z,19.30
2022-09-15T15:26:49.735Z,20.00
2022-09-15T15:29:43.870Z,20.30
2022-09-15T15:32:15.559Z,19.60
2022-09-15T15:34:51.594Z,19.20
2022-09-15T15:37:28.232Z,19.70
2022-09-15T15:39:58.208Z,20.00
2022-09-15T15:42:28.778Z,20.10
2022-09-15T15:45:05.259Z,20.80
2022-09-15T15:47:37.647Z,21.10
2022-09-15T15:50:14.219Z,20.60
2022-09-15T15:52:43.991Z,20.70
2022-09-15T15:55:16.101Z,19.80
2022-09-15T15:57:45.129Z,20.40
2022-09-15T16:00:22.361Z,21.00
2022-09-15T16:02:51.402Z,20.10
2022-09-15T16:05:20.646Z,20.00
2022-09-15T16:07:51.590Z,19.50
2022-09-15T16:10:25.678Z,20.50
2022-09-15T16:12:53.924Z,19.90
2022-09-15T16:15:23.931Z,20.20
2022-09-15T16:17:52.202Z,20.50
2022-09-15T16:20:20.722Z,20.40
2022-09-15T16:22:49.153Z,20.60
2022-09-15T16:25:22.452Z,20.30
2022-09-15T16:27:50.756Z,20.10
2022-09-15T16:30:19.068Z,19.40
2022-09-15T16:32:48.726Z,19.60
2022-09-15T16:35:31.211Z,20.50
2022-09-15T16:37:59.514Z,20.80
2022-09-15T16:40:27.867Z,20.40
2022-09-15T16:42:56.139Z,20.60
2022-09-15T16:45:35.097Z,20.80
2022-09-15T16:48:07.809Z,20.60
2022-09-15T16:50:37.777Z,19.90
2022-09-15T16:53:13.550Z,20.00
2022-09-15T16:55:45.974Z,19.80
2022-09-15T16:58:16.164Z,19.70
2022-09-15T17:00:45.992Z,19.70
2022-09-15T17:03:19.661Z,20.20
2022-09-15T17:05:50.394Z,20.10
2022-09-15T17:08:20.741Z,19.80
2022-09-15T17:10:49.839Z,19.70
2022-09-15T17:13:20.637Z,19.60
2022-09-15T17:15:50.635Z,19.20
2022-09-15T17:18:20.447Z,19.60
2022-09-15T17:20:50.239Z,20.10
2022-09-15T17:23:23.392Z,19.80
2022-09-15T17:25:57.459Z,19.70
2022-09-15T17:28:29.115Z,19.60
2022-09-15T17:30:59.851Z,19.50
2022-09-15T17:33:31.081Z,19.60
2022-09-15T17:35:59.629Z,19.60
2022-09-15T17:38:28.202Z,19.40
2022-09-15T17:40:56.853Z,19.70
2022-09-15T17:43:28.806Z,19.80
2022-09-15T17:45:57.551Z,19.90
2022-09-15T17:48:26.178Z,19.80
2022-09-15T17:50:55.869Z,19.80
2022-09-15T17:53:26.809Z,19.40
2022-09-15T17:55:56.746Z,19.60
2022-09-15T17:58:26.688Z,20.10
2022-09-15T18:00:55.615Z,20.20
2022-09-15T18:03:27.812Z,20.10
2022-09-15T18:05:59.404Z,19.60
2022-09-15T18:08:28.835Z,19.70
2022-09-15T18:10:57.090Z,19.60
2022-09-15T18:13:28.225Z,19.10
2022-09-15T18:15:57.373Z,19.20
2022-09-15T18:18:28.240Z,19.40
2022-09-15T18:20:58.872Z,19.20
2022-09-15T18:23:29.576Z,19.20
2022-09-15T18:25:58.288Z,19.40
2022-09-15T18:28:26.705Z,19.00
2022-09-15T18:30:54.982Z,19.00
2022-09-15T18:33:25.578Z,19.20
2022-09-15T18:35:56.097Z,19.50
2022-09-15T18:38:25.930Z,18.90
2022-09-15T18:40:57.238Z,18.90
2022-09-15T18:43:27.861Z,19.40
2022-09-15T18:45:59.987Z,19.10
2022-09-15T18:48:28.365Z,19.30
2022-09-15T18:50:56.624Z,19.20
2022-09-15T18:53:26.349Z,18.70
2022-09-15T18:55:54.641Z,18.60
2022-09-15T18:58:22.882Z,18.80
2022-09-15T19:00:51.942Z,18.80
2022-09-15T19:03:20.202Z,19.00
2022-09-15T19:05:48.637Z,19.20
2022-09-15T19:08:17.023Z,19.20
2022-09-15T19:10:47.917Z,19.00
2022-09-15T19:13:16.182Z,18.70
2022-09-15T19:15:44.837Z,18.60
2022-09-15T19:18:13.252Z,18.80
2022-09-15T19:20:42.213Z,18.60
2022-09-15T19:23:10.772Z,18.50
2022-09-15T19:25:41.641Z,18.80
2022-09-15T19:28:11.840Z,18.70
2022-09-15T19:30:40.151Z,18.30
2022-09-15T19:33:08.438Z,18.40
2022-09-15T19:35:36.657Z,18.30
2022-09-15T19:38:05.138Z,18.00
2022-09-15T19:40:33.389Z,18.30
2022-09-15T19:43:01.702Z,18.50
2022-09-15T19:45:31.311Z,18.20
2022-09-15T19:47:59.541Z,18.40
2022-09-15T19:50:27.819Z,18.20
2022-09-15T19:52:58.942Z,18.20
2022-09-15T19:55:28.813Z,18.40
2022-09-15T19:57:57.099Z,18.60
2022-09-15T20:00:25.378Z,17.90
2022-09-15T20:02:55.106Z,17.90
2022-09-15T20:05:23.495Z,17.80
2022-09-15T20:07:51.901Z,17.90
2022-09-15T20:10:20.104Z,17.60
2022-09-15T20:12:48.337Z,17.70
2022-09-15T20:15:16.692Z,17.80
2022-09-15T20:17:44.954Z,17.60
2022-09-15T20:20:14.687Z,17.70
2022-09-15T20:22:42.984Z,17.70
2022-09-15T20:25:11.316Z,17.90
2022-09-15T20:27:39.633Z,17.80
2022-09-15T20:30:09.894Z,17.70
2022-09-15T20:32:38.131Z,18.00
2022-09-15T20:35:07.169Z,18.20
2022-09-15T20:37:37.753Z,17.90
2022-09-15T20:40:08.178Z,17.60
2022-09-15T20:42:36.614Z,17.70
2022-09-15T20:45:06.535Z,17.90
2022-09-15T20:47:34.918Z,17.90
2022-09-15T20:50:03.281Z,17.70
2022-09-15T20:52:36.017Z,17.30
2022-09-15T20:55:08.779Z,17.20
2022-09-15T20:57:37.067Z,17.30
2022-09-15T21:00:08.785Z,17.70
2022-09-15T21:02:37.073Z,17.30
2022-09-15T21:05:06.010Z,17.70
2022-09-15T21:07:34.405Z,17.80
2022-09-15T21:10:03.019Z,17.70
2022-09-15T21:12:32.640Z,17.50
2022-09-15T21:15:00.869Z,17.90
2022-09-15T21:17:29.554Z,17.80
2022-09-15T21:19:57.750Z,17.30
2022-09-15T21:22:25.981Z,17.80
2022-09-15T21:24:54.186Z,17.70
2022-09-15T21:27:28.827Z,17.90
2022-09-15T21:29:58.502Z,17.30
2022-09-15T21:32:26.771Z,17.60
2022-09-15T21:34:56.002Z,17.90
2022-09-15T21:37:26.833Z,17.60
2022-09-15T21:39:55.212Z,17.90
2022-09-15T21:42:23.525Z,17.80
2022-09-15T21:44:52.158Z,17.90
2022-09-15T21:47:22.162Z,17.60
2022-09-15T21:49:51.778Z,17.10
2022-09-15T21:52:20.028Z,17.60
2022-09-15T21:54:48.261Z,17.00
2022-09-15T21:57:16.527Z,17.10
2022-09-15T21:59:45.421Z,17.10
2022-09-15T22:02:13.747Z,16.90
2022-09-15T22:04:43.382Z,16.80
2022-09-15T22:07:11.681Z,16.30
2022-09-15T22:09:39.965Z,16.30
2022-09-15T22:12:08.694Z,16.40
2022-09-15T22:14:36.995Z,16.40
2022-09-15T22:17:05.524Z,16.70
2022-09-15T22:19:33.792Z,16.40
2022-09-15T22:22:03.555Z,17.10
2022-09-15T22:24:31.935Z,17.00
2022-09-15T22:27:00.167Z,17.20
2022-09-15T22:29:28.463Z,17.20
2022-09-15T22:31:56.828Z,17.40
2022-09-15T22:34:25.067Z,17.80
2022-09-15T22:36:53.315Z,17.60
2022-09-15T22:39:33.989Z,16.60
2022-09-15T22:42:11.866Z,17.50
2022-09-15T22:44:40.189Z,17.50
2022-09-15T22:47:09.547Z,17.00
2022-09-15T22:49:37.776Z,17.40
2022-09-15T22:52:06.528Z,17.10
2022-09-15T22:54:36.196Z,17.20
2022-09-15T22:57:04.804Z,17.20
2022-09-15T22:59:33.081Z,17.50
2022-09-15T23:02:01.449Z,17.60
2022-09-15T23:04:29.968Z,17.60
2022-09-15T23:06:58.299Z,16.80
2022-09-15T23:09:26.563Z,17.10
2022-09-15T23:11:56.180Z,17.20
2022-09-15T23:14:24.424Z,16.80
2022-09-15T23:16:52.671Z,16.90
2022-09-15T23:19:20.886Z,16.80
2022-09-15T23:21:49.362Z,17.20
2022-09-15T23:24:17.570Z,16.90
2022-09-15T23:26:45.829Z,16.50
2022-09-15T23:29:15.655Z,16.50
2022-09-15T23:31:43.961Z,16.40
2022-09-15T23:34:12.389Z,16.40
2022-09-15T23:36:40.651Z,16.50
2022-09-15T23:39:08.942Z,16.50
2022-09-15T23:41:39.013Z,17.10
2022-09-15T23:44:07.474Z,17.00
2022-09-15T23:46:37.141Z,17.30
2022-09-15T23:49:05.537Z,17.10
2022-09-15T23:51:33.792Z,17.20
2022-09-15T23:54:03.342Z,16.80
2022-09-15T23:56:33.345Z,16.90
2022-09-15T23:59:01.638Z,16.80
